Strona główna
METAR-TAF:

METAR-TAF

Lotnisko :

Port lotniczy U-Tapao

Pattaya-Rayong, Tajlandia

Szerokość geograficzna: 12-38N, Długość geograficzna: 101-21E, wysokość: 3 m

Aktualna obserwacja pogody

Raport powstał 33 minut temu, godzina 03:00 UTC
Wiatr 8 kt od północno-północny zachód
Temperatura 28°C
Wilgotność 40%
Ciśnienie 1015 hPa
Widzialność 10 km lub więcej
Brak chmur poniżej 1500 m i brak chmur cumulonimbus

METAR: VTBU 100300Z 34008KT CAVOK 28/13 Q1015 NOSIG

czas: 10:33 (03:33 UTC)

Prognoza

Raport powstał 4 godziny i 33 minut temu, godzina 23:00 UTC
Prognoza ważna od 10 godzina 00 UTC do 10 godzina 24 UTC
Wiatr 10 kt od północ
Widzialność: 8000 m

TAF: VTBU 092300Z 1000/1024 01010KT 8000 NSC

Obserwacja i prognoza pogody dla ponad 4000 lotnisk (raport METAR i TAF).

Dostępne stacje oznaczono żółtymi i czerwonymi punktami na mapie.

Najedź kursorem aby zobaczyć nazwę stacji.

Kliknij aby zobaczyć obserwacje i prognozy pogody.

Aby zmienić mapę: kliknij na zielony przycisk z czarnym krzyżykiem, aby powiększyć; na zielony przycisk z myślnikiem, aby pomniejszyć; na zielone strzałki, aby przejść do map sąsiednich.


METAR-TAF: